Time;durP1;ratioP1;P1;durP2;ratioP2;P2;SDS_P1;SDS_P2;PMS_P1;PMS_P2;Temp;Humidity;BMP_temperature;BMP_pressure;BME280_temperature;BME280_humidity;BME280_pressure;Samples;Min_cycle;Max_cycle;Signal;HPM_P1;HPM_P2
2020/12/25 00:01:46;;;;;;;13.77;2.60;;;22.40;79.40;;;;;;5072634;28;20179;-76
2020/12/25 00:04:14;;;;;;;11.13;2.20;;;22.10;80.20;;;;;;5073427;28;20193;-76
2020/12/25 00:06:41;;;;;;;11.80;2.57;;;21.90;81.30;;;;;;5073197;28;20183;-76
2020/12/25 00:09:08;;;;;;;10.10;3.30;;;21.60;82.80;;;;;;5063941;28;20674;-79
2020/12/25 00:11:38;;;;;;;14.60;2.87;;;21.50;83.40;;;;;;5071093;28;20190;-75
2020/12/25 00:14:06;;;;;;;9.50;2.63;;;21.60;83.50;;;;;;5071475;28;20190;-76
2020/12/25 00:16:33;;;;;;;11.90;2.57;;;21.70;82.00;;;;;;5070750;28;20179;-76
2020/12/25 00:19:01;;;;;;;16.43;2.53;;;21.80;81.90;;;;;;5071810;28;20226;-76
2020/12/25 00:21:28;;;;;;;19.63;3.73;;;21.90;82.40;;;;;;5073012;28;20194;-75
2020/12/25 00:23:56;;;;;;;10.13;2.87;;;21.90;82.40;;;;;;5069803;28;20776;-75
2020/12/25 00:26:27;;;;;;;15.00;4.47;;;22.00;82.30;;;;;;5068941;28;20218;-74
2020/12/25 00:28:59;;;;;;;19.27;3.50;;;22.00;82.00;;;;;;5068010;28;20665;-73
2020/12/25 00:31:30;;;;;;;12.67;3.10;;;22.10;81.90;;;;;;5069933;28;20186;-75
2020/12/25 00:34:02;;;;;;;13.27;2.90;;;22.20;81.70;;;;;;5065984;28;20198;-76
2020/12/25 00:36:32;;;;;;;21.43;2.90;;;22.40;81.70;;;;;;5068746;28;20172;-77
2020/12/25 00:39:01;;;;;;;19.40;3.40;;;22.50;79.60;;;;;;5067094;28;20219;-76
2020/12/25 00:41:28;;;;;;;21.63;3.63;;;22.70;79.50;;;;;;5067350;28;20184;-76
2020/12/25 00:43:56;;;;;;;10.07;3.30;;;22.90;79.80;;;;;;5069928;28;20179;-77
2020/12/25 00:46:23;;;;;;;13.50;3.07;;;23.00;79.40;;;;;;5070945;28;20256;-76
2020/12/25 00:48:51;;;;;;;14.70;3.23;;;23.20;78.20;;;;;;5067418;28;20604;-75
2020/12/25 00:51:22;;;;;;;12.70;2.87;;;23.20;77.60;;;;;;5063257;28;20175;-74
2020/12/25 00:53:50;;;;;;;15.03;3.40;;;23.40;76.50;;;;;;5070303;28;20175;-75
2020/12/25 00:56:18;;;;;;;11.17;2.80;;;23.30;77.00;;;;;;5070830;28;20213;-77
2020/12/25 00:58:46;;;;;;;9.03;2.37;;;23.20;77.00;;;;;;5071956;28;20344;-75
2020/12/25 01:01:15;;;;;;;10.67;2.77;;;23.10;75.90;;;;;;5072522;28;20235;-77
2020/12/25 01:03:44;;;;;;;11.93;2.60;;;23.20;76.70;;;;;;5072029;28;20262;-75
2020/12/25 01:06:16;;;;;;;17.67;3.03;;;23.10;78.10;;;;;;5072239;28;20179;-75
2020/12/25 01:08:47;;;;;;;11.43;3.63;;;22.90;78.90;;;;;;5073230;28;20179;-76
2020/12/25 01:11:16;;;;;;;15.90;3.73;;;22.90;78.80;;;;;;5072737;28;20317;-80
2020/12/25 01:13:44;;;;;;;11.77;2.37;;;23.00;78.80;;;;;;5071412;28;20194;-74
2020/12/25 01:16:16;;;;;;;17.33;3.07;;;22.90;78.20;;;;;;5055277;28;20191;-76
2020/12/25 01:18:48;;;;;;;15.10;2.70;;;22.70;78.10;;;;;;5058453;28;20238;-74
2020/12/25 01:21:17;;;;;;;9.47;2.37;;;22.60;77.20;;;;;;5072461;28;20194;-75
2020/12/25 01:23:45;;;;;;;14.47;2.73;;;22.50;79.20;;;;;;5058247;28;20289;-78
2020/12/25 01:26:13;;;;;;;12.33;2.87;;;22.30;80.80;;;;;;5064937;28;20244;-77
2020/12/25 01:28:40;;;;;;;22.53;4.40;;;22.20;81.60;;;;;;5058393;28;20279;-78
2020/12/25 01:31:07;;;;;;;16.80;3.13;;;22.00;82.50;;;;;;5065750;28;20182;-80
2020/12/25 01:33:36;;;;;;;15.80;3.33;;;21.90;82.50;;;;;;5066756;28;20194;-78
2020/12/25 01:36:04;;;;;;;10.73;2.67;;;21.80;82.80;;;;;;5071768;28;20167;-78
2020/12/25 01:38:33;;;;;;;12.83;2.90;;;21.70;82.70;;;;;;5073167;28;20286;-78
2020/12/25 01:41:01;;;;;;;13.30;2.67;;;21.50;83.00;;;;;;5072847;28;20599;-78
2020/12/25 01:43:29;;;;;;;9.33;2.53;;;21.40;83.60;;;;;;5073179;28;20176;-75
2020/12/25 01:45:56;;;;;;;14.10;3.23;;;21.30;84.60;;;;;;5075852;28;20175;-75
2020/12/25 01:48:24;;;;;;;16.93;3.00;;;21.30;84.00;;;;;;5075817;28;20179;-76
2020/12/25 01:50:52;;;;;;;17.63;3.87;;;21.30;84.10;;;;;;5076535;28;20175;-75
2020/12/25 01:53:23;;;;;;;15.77;2.83;;;21.30;83.70;;;;;;5076939;28;20160;-76
2020/12/25 01:55:52;;;;;;;12.63;2.83;;;21.20;84.00;;;;;;5074650;28;20201;-76
2020/12/25 01:58:21;;;;;;;12.50;2.87;;;21.20;83.80;;;;;;5074596;28;20263;-77
2020/12/25 02:00:48;;;;;;;11.33;2.33;;;21.30;83.30;;;;;;5076688;28;20175;-77
2020/12/25 02:03:19;;;;;;;12.07;2.63;;;21.30;82.70;;;;;;5076142;28;20187;-76
2020/12/25 02:05:47;;;;;;;14.17;3.40;;;21.40;82.30;;;;;;5063116;28;20630;-79
2020/12/25 02:08:15;;;;;;;12.30;3.07;;;21.50;82.90;;;;;;5076523;28;20171;-76
2020/12/25 02:10:43;;;;;;;15.93;2.93;;;21.90;81.10;;;;;;5076079;28;20187;-77
2020/12/25 02:13:11;;;;;;;10.33;2.90;;;22.20;79.90;;;;;;5076189;28;20206;-78
2020/12/25 02:15:39;;;;;;;15.17;2.43;;;22.60;78.50;;;;;;5075905;28;20269;-77
2020/12/25 02:18:06;;;;;;;12.87;2.77;;;22.70;78.10;;;;;;5075884;28;20213;-77
2020/12/25 02:20:34;;;;;;;9.30;2.50;;;22.90;76.70;;;;;;5075639;28;20195;-75
2020/12/25 02:23:01;;;;;;;10.37;2.47;;;22.70;76.40;;;;;;5075858;28;20175;-76
2020/12/25 02:25:28;;;;;;;10.63;2.70;;;22.40;76.90;;;;;;5074693;28;20230;-79
2020/12/25 02:27:56;;;;;;;13.60;2.60;;;22.10;78.10;;;;;;5076259;28;20656;-79
2020/12/25 02:30:23;;;;;;;11.93;2.63;;;22.00;78.80;;;;;;5076738;28;20171;-79
2020/12/25 02:32:51;;;;;;;7.20;2.13;;;21.90;78.90;;;;;;5076544;28;20631;-78
2020/12/25 02:35:18;;;;;;;10.77;2.40;;;21.80;78.50;;;;;;5076261;28;20275;-77
2020/12/25 02:37:46;;;;;;;10.27;2.20;;;21.80;78.30;;;;;;5075656;28;20258;-78
2020/12/25 02:40:13;;;;;;;13.23;2.60;;;21.80;77.70;;;;;;5074885;28;20209;-76
2020/12/25 02:42:41;;;;;;;13.20;2.33;;;21.90;78.50;;;;;;5075838;28;20175;-79
2020/12/25 02:45:08;;;;;;;12.57;3.23;;;21.90;78.60;;;;;;5075963;28;20611;-76
2020/12/25 02:47:35;;;;;;;9.73;2.03;;;21.70;79.10;;;;;;5075602;28;20179;-79
2020/12/25 02:50:03;;;;;;;12.07;2.53;;;21.80;79.90;;;;;;5069629;28;20233;-78
2020/12/25 02:52:31;;;;;;;11.17;2.27;;;22.10;79.60;;;;;;5056286;28;20172;-79
2020/12/25 02:54:58;;;;;;;13.53;2.40;;;22.40;78.20;;;;;;5075538;28;20187;-80
2020/12/25 02:57:25;;;;;;;17.10;3.10;;;22.60;77.60;;;;;;5075376;28;20181;-78
2020/12/25 02:59:53;;;;;;;15.30;2.70;;;22.80;75.80;;;;;;5076192;28;20266;-77
2020/12/25 03:02:20;;;;;;;16.57;3.00;;;22.70;75.90;;;;;;5075486;28;20167;-79
2020/12/25 03:04:47;;;;;;;10.37;2.43;;;22.70;76.30;;;;;;5074688;28;20183;-79
2020/12/25 03:07:15;;;;;;;16.40;3.10;;;22.40;76.80;;;;;;5075550;28;20221;-80
2020/12/25 03:09:42;;;;;;;14.20;2.87;;;22.50;76.90;;;;;;5075195;28;20695;-79
2020/12/25 03:12:09;;;;;;;12.57;2.10;;;22.70;76.00;;;;;;5075080;28;20171;-76
2020/12/25 03:14:37;;;;;;;11.97;2.23;;;22.60;74.60;;;;;;5066858;28;20575;-77
2020/12/25 03:17:04;;;;;;;17.63;2.63;;;22.50;74.90;;;;;;5069118;28;20179;-76
2020/12/25 03:19:32;;;;;;;13.37;2.30;;;22.50;74.60;;;;;;5073334;28;20233;-76
2020/12/25 03:21:59;;;;;;;9.67;2.03;;;22.50;75.30;;;;;;5073391;28;20539;-78
2020/12/25 03:24:26;;;;;;;10.83;2.70;;;22.70;75.30;;;;;;5072981;28;20584;-77
2020/12/25 03:26:54;;;;;;;12.03;2.40;;;22.40;75.60;;;;;;5064208;28;20214;-74
2020/12/25 03:29:21;;;;;;;17.03;2.50;;;22.40;76.00;;;;;;5059352;28;20604;-76
2020/12/25 03:31:48;;;;;;;8.93;2.40;;;22.40;76.80;;;;;;5067539;28;20215;-75
2020/12/25 03:34:16;;;;;;;12.20;2.23;;;22.30;76.40;;;;;;5062257;28;20186;-77
2020/12/25 03:36:43;;;;;;;11.87;2.70;;;22.10;76.60;;;;;;5057400;28;20176;-68
2020/12/25 03:39:11;;;;;;;19.47;2.50;;;22.00;76.70;;;;;;5067881;28;20218;-70
2020/12/25 03:41:39;;;;;;;11.73;2.37;;;21.90;77.40;;;;;;5073918;28;20183;-69
2020/12/25 03:44:06;;;;;;;12.53;2.37;;;21.80;78.00;;;;;;5073347;28;20274;-69
2020/12/25 03:46:37;;;;;;;15.97;2.50;;;21.80;78.10;;;;;;5074115;28;20175;-69
2020/12/25 03:49:06;;;;;;;17.50;3.37;;;21.70;78.40;;;;;;5073425;28;20187;-68
2020/12/25 03:51:33;;;;;;;8.73;2.30;;;21.50;78.80;;;;;;5062527;28;20270;-71
2020/12/25 03:54:01;;;;;;;12.33;2.23;;;21.50;79.60;;;;;;5061037;28;20187;-69
2020/12/25 03:56:28;;;;;;;7.50;2.20;;;21.50;79.70;;;;;;5057917;28;20180;-70
2020/12/25 03:58:56;;;;;;;8.17;2.57;;;21.50;79.20;;;;;;5065876;28;20567;-69
2020/12/25 04:01:23;;;;;;;10.80;2.70;;;21.60;78.80;;;;;;5065537;28;20214;-70
2020/12/25 04:03:50;;;;;;;12.50;2.20;;;21.50;78.80;;;;;;5066741;28;20218;-70
2020/12/25 04:06:18;;;;;;;13.33;2.33;;;21.30;79.00;;;;;;5065957;28;20185;-69
2020/12/25 04:08:46;;;;;;;12.03;2.20;;;21.30;79.40;;;;;;5063158;28;20653;-69
2020/12/25 04:11:13;;;;;;;14.17;2.67;;;21.30;80.00;;;;;;5062282;28;20180;-69
2020/12/25 04:13:41;;;;;;;17.57;2.87;;;21.10;80.80;;;;;;5063850;28;20587;-70
2020/12/25 04:16:08;;;;;;;14.63;2.30;;;21.10;81.20;;;;;;5065239;28;20673;-70
2020/12/25 04:18:35;;;;;;;13.77;2.23;;;21.30;81.00;;;;;;5058947;28;20211;-71
2020/12/25 04:21:03;;;;;;;8.80;1.90;;;21.40;80.80;;;;;;5065141;28;20277;-69
2020/12/25 04:23:30;;;;;;;13.37;2.50;;;21.50;80.80;;;;;;5056404;28;20543;-71
2020/12/25 04:25:58;;;;;;;11.23;2.10;;;21.60;79.50;;;;;;5059185;28;20238;-70
2020/12/25 04:28:25;;;;;;;12.43;1.93;;;21.70;78.90;;;;;;5066869;28;20171;-71
2020/12/25 04:30:52;;;;;;;11.73;2.30;;;21.60;79.40;;;;;;5061274;28;20736;-70
2020/12/25 04:33:20;;;;;;;11.77;2.47;;;21.80;78.30;;;;;;5062100;28;20193;-70
2020/12/25 04:35:47;;;;;;;10.47;2.47;;;21.70;78.20;;;;;;5064836;28;20582;-70
2020/12/25 04:38:14;;;;;;;12.87;2.93;;;21.80;78.50;;;;;;5065573;28;20249;-71
2020/12/25 04:40:43;;;;;;;10.53;2.63;;;21.70;79.40;;;;;;5064843;28;20193;-70
2020/12/25 04:43:13;;;;;;;12.10;2.80;;;21.50;80.30;;;;;;5057844;28;20175;-70
2020/12/25 04:45:41;;;;;;;13.60;2.30;;;21.50;79.30;;;;;;5062689;28;20273;-69
2020/12/25 04:48:08;;;;;;;14.53;2.53;;;21.50;80.10;;;;;;5064579;28;20213;-70
2020/12/25 04:50:36;;;;;;;12.77;2.43;;;21.40;79.40;;;;;;5060505;28;20223;-70
2020/12/25 04:53:04;;;;;;;10.30;1.97;;;21.50;80.20;;;;;;5063312;28;20586;-71
2020/12/25 04:55:31;;;;;;;11.53;2.77;;;21.60;80.30;;;;;;5057883;28;20263;-71
2020/12/25 04:57:59;;;;;;;12.83;1.90;;;21.80;79.60;;;;;;5064459;28;20556;-72
2020/12/25 05:00:30;;;;;;;14.57;2.03;;;22.00;78.60;;;;;;5070561;28;20190;-71
2020/12/25 05:02:57;;;;;;;12.87;1.80;;;21.80;78.90;;;;;;5060612;28;20190;-70
2020/12/25 05:05:30;;;;;;;12.83;2.57;;;21.60;80.30;;;;;;5055714;28;20183;-69
2020/12/25 05:07:58;;;;;;;17.73;2.97;;;21.60;80.90;;;;;;5063609;28;20215;-69
2020/12/25 05:10:27;;;;;;;10.73;2.63;;;21.50;81.10;;;;;;5061252;28;20178;-70
2020/12/25 05:12:55;;;;;;;8.30;2.03;;;21.50;80.50;;;;;;5065343;28;20178;-69
2020/12/25 05:15:22;;;;;;;11.00;2.80;;;21.50;81.20;;;;;;5062813;28;20187;-68
2020/12/25 05:17:59;;;;;;;13.60;2.77;;;21.60;81.00;;;;;;5065617;28;20229;-70
2020/12/25 05:20:28;;;;;;;11.97;2.97;;;21.40;81.40;;;;;;5062143;28;20239;-70
2020/12/25 05:23:10;;;;;;;11.70;2.53;;;21.20;81.80;;;;;;5071737;28;20575;-69
2020/12/25 05:25:40;;;;;;;14.57;2.70;;;21.10;82.50;;;;;;5061013;28;20365;-70
2020/12/25 05:28:15;;;;;;;13.43;1.97;;;21.10;82.80;;;;;;5066292;28;20183;-70
2020/12/25 05:30:45;;;;;;;5.70;1.50;;;20.90;82.50;;;;;;5067149;28;20170;-69
2020/12/25 05:33:14;;;;;;;11.43;1.80;;;20.70;83.80;;;;;;5068392;28;20247;-72
2020/12/25 05:35:43;;;;;;;15.27;2.93;;;20.80;83.90;;;;;;5066857;28;20649;-70
2020/12/25 05:38:11;;;;;;;9.27;2.57;;;20.80;83.90;;;;;;5066016;28;20287;-70
2020/12/25 05:40:45;;;;;;;11.97;2.03;;;20.80;83.50;;;;;;5069415;28;20372;-71
2020/12/25 05:43:17;;;;;;;13.37;2.43;;;20.80;83.30;;;;;;5062377;28;20183;-70
2020/12/25 05:45:45;;;;;;;13.40;2.33;;;20.80;83.10;;;;;;5067551;28;20649;-70
2020/12/25 05:48:13;;;;;;;11.43;2.47;;;20.70;82.90;;;;;;5066617;28;20219;-70
2020/12/25 05:50:42;;;;;;;9.67;2.30;;;20.70;83.10;;;;;;5062064;28;20264;-70
2020/12/25 05:53:10;;;;;;;15.17;1.97;;;20.70;83.30;;;;;;5070012;28;20673;-70
2020/12/25 05:55:38;;;;;;;11.10;2.27;;;20.70;83.20;;;;;;5061460;28;20379;-70
2020/12/25 05:58:06;;;;;;;17.37;2.50;;;20.60;83.20;;;;;;5063662;28;20207;-72
2020/12/25 06:00:34;;;;;;;15.03;2.77;;;20.60;83.10;;;;;;5068725;28;20276;-72
2020/12/25 06:03:01;;;;;;;12.27;2.23;;;20.60;83.00;;;;;;5070388;28;20167;-71
2020/12/25 06:05:29;;;;;;;14.80;2.50;;;20.60;83.00;;;;;;5068858;28;20194;-70
2020/12/25 06:08:00;;;;;;;7.37;1.80;;;20.50;83.10;;;;;;5069309;28;20182;-71
2020/12/25 06:10:30;;;;;;;11.00;2.10;;;20.40;83.60;;;;;;5065778;28;20214;-70
2020/12/25 06:12:58;;;;;;;8.93;1.80;;;20.30;83.70;;;;;;5071540;28;20179;-70
2020/12/25 06:15:31;;;;;;;15.10;2.33;;;20.30;84.30;;;;;;5065497;28;20723;-69
2020/12/25 06:18:10;;;;;;;5.77;1.53;;;20.30;84.10;;;;;;5063884;28;20188;-70
2020/12/25 06:20:45;;;;;;;14.77;2.43;;;20.40;83.40;;;;;;5060048;28;20195;-71
2020/12/25 06:23:13;;;;;;;10.27;1.87;;;20.50;82.80;;;;;;5062302;28;20216;-70
2020/12/25 06:25:41;;;;;;;16.87;2.00;;;20.40;82.70;;;;;;5065026;28;20249;-69
2020/12/25 06:28:09;;;;;;;15.33;2.30;;;20.50;82.80;;;;;;5067114;28;20582;-70
2020/12/25 06:30:36;;;;;;;8.23;2.10;;;20.50;81.90;;;;;;5057249;28;20191;-70
2020/12/25 06:33:04;;;;;;;11.37;1.90;;;20.50;81.60;;;;;;5067145;28;20706;-71
2020/12/25 06:35:40;;;;;;;14.47;2.40;;;20.50;81.80;;;;;;5063088;28;20720;-71
2020/12/25 06:38:16;;;;;;;16.43;4.37;;;20.50;81.60;;;;;;5065355;28;20223;-70
2020/12/25 06:40:44;;;;;;;14.10;3.33;;;20.50;81.60;;;;;;5062598;28;20672;-72
2020/12/25 06:43:19;;;;;;;13.63;2.97;;;20.60;81.50;;;;;;5069314;28;20183;-72
2020/12/25 06:46:07;;;;;;;12.87;1.97;;;20.60;81.30;;;;;;5068759;28;20592;-71
2020/12/25 06:48:35;;;;;;;9.70;2.03;;;20.70;80.80;;;;;;5058131;28;20201;-72
2020/12/25 06:51:03;;;;;;;11.23;2.70;;;20.60;81.10;;;;;;5064093;28;20191;-71
2020/12/25 06:53:43;;;;;;;12.43;2.43;;;20.60;81.10;;;;;;5062117;28;20199;-71
2020/12/25 06:56:17;;;;;;;11.83;2.60;;;20.70;81.00;;;;;;5067876;28;20168;-71
2020/12/25 06:58:50;;;;;;;13.17;2.67;;;20.70;80.90;;;;;;5063745;28;20247;-69
2020/12/25 07:01:34;;;;;;;13.60;2.77;;;20.80;81.10;;;;;;5089777;28;20179;-70
2020/12/25 07:04:01;;;;;;;9.57;2.57;;;20.80;80.70;;;;;;5068750;28;20218;-71
2020/12/25 07:06:31;;;;;;;12.83;2.53;;;20.80;80.80;;;;;;5063192;28;20274;-70
2020/12/25 07:09:19;;;;;;;14.47;2.63;;;20.90;80.50;;;;;;5067715;28;20172;-70
2020/12/25 07:11:53;;;;;;;11.67;2.47;;;20.80;80.10;;;;;;5083283;28;20173;-70
2020/12/25 07:14:20;;;;;;;15.23;4.73;;;20.80;79.90;;;;;;5057731;28;20180;-69
2020/12/25 07:16:49;;;;;;;15.13;2.20;;;20.80;80.00;;;;;;5057272;28;20191;-70
2020/12/25 07:19:16;;;;;;;11.97;2.13;;;20.80;80.50;;;;;;5071766;28;20217;-70
2020/12/25 07:21:44;;;;;;;14.87;2.83;;;20.80;80.30;;;;;;5068893;28;20197;-69
2020/12/25 07:24:11;;;;;;;14.60;2.30;;;20.70;80.20;;;;;;5063996;28;20305;-70
2020/12/25 07:26:39;;;;;;;13.70;2.50;;;20.70;80.50;;;;;;5066011;28;21071;-71
2020/12/25 07:29:14;;;;;;;16.63;3.10;;;20.70;80.70;;;;;;5065357;28;20187;-70
2020/12/25 07:31:55;;;;;;;16.33;2.37;;;20.70;80.90;;;;;;5060097;28;20203;-69
2020/12/25 07:34:25;;;;;;;11.73;3.00;;;20.70;81.10;;;;;;5065890;28;20179;-69
2020/12/25 07:36:55;;;;;;;13.97;2.50;;;20.80;80.80;;;;;;5066471;28;20195;-69
2020/12/25 07:39:24;;;;;;;9.10;2.40;;;20.70;80.90;;;;;;5067103;28;20214;-70
2020/12/25 07:41:51;;;;;;;12.90;2.33;;;20.60;80.70;;;;;;5060979;28;20322;-69
2020/12/25 07:44:21;;;;;;;9.30;2.20;;;20.50;81.00;;;;;;5064925;28;20191;-69
2020/12/25 07:46:48;;;;;;;14.17;2.30;;;20.50;81.80;;;;;;5072342;28;20266;-69
2020/12/25 07:49:18;;;;;;;16.33;2.43;;;20.40;83.20;;;;;;5067154;28;20274;-69
2020/12/25 07:51:51;;;;;;;20.10;3.87;;;20.30;84.40;;;;;;5071057;28;20189;-69
2020/12/25 07:54:18;;;;;;;17.13;5.27;;;20.20;84.80;;;;;;5061659;28;20187;-68
2020/12/25 07:56:46;;;;;;;10.17;2.33;;;20.20;85.30;;;;;;5069088;28;20262;-69
2020/12/25 07:59:13;;;;;;;9.07;2.17;;;20.20;85.40;;;;;;5061776;28;20274;-70
2020/12/25 08:01:40;;;;;;;11.37;2.57;;;20.20;85.30;;;;;;5060351;28;20579;-70
2020/12/25 08:04:08;;;;;;;5.87;2.23;;;20.10;85.40;;;;;;5066468;28;20550;-70
2020/12/25 08:06:36;;;;;;;8.20;1.97;;;20.10;86.00;;;;;;5062880;28;20182;-70
2020/12/25 08:09:07;;;;;;;11.53;2.53;;;20.00;86.20;;;;;;5063445;28;20781;-71
2020/12/25 08:11:36;;;;;;;13.57;2.03;;;19.90;86.70;;;;;;5060497;28;20184;-71
2020/12/25 08:14:16;;;;;;;13.50;2.20;;;19.90;86.20;;;;;;5060989;28;20262;-70
2020/12/25 08:16:48;;;;;;;9.93;2.43;;;19.90;86.60;;;;;;5064480;28;20549;-70
2020/12/25 08:19:18;;;;;;;9.20;2.20;;;19.90;86.50;;;;;;5067853;28;20212;-69
2020/12/25 08:21:46;;;;;;;15.50;4.70;;;19.90;87.00;;;;;;5063362;28;20172;-69
2020/12/25 08:24:13;;;;;;;12.73;2.90;;;19.90;86.70;;;;;;5064570;28;20229;-71
2020/12/25 08:26:41;;;;;;;10.13;2.50;;;19.90;86.80;;;;;;5063151;28;20543;-70
2020/12/25 08:29:10;;;;;;;10.43;2.10;;;19.90;86.70;;;;;;5062518;28;20569;-69
2020/12/25 08:31:41;;;;;;;12.13;2.60;;;19.90;87.00;;;;;;5064465;28;20213;-70
2020/12/25 08:34:21;;;;;;;10.23;1.80;;;19.90;87.10;;;;;;5063576;28;20707;-69
2020/12/25 08:37:04;;;;;;;9.13;2.00;;;19.90;86.80;;;;;;5066059;28;20279;-69
2020/12/25 08:39:32;;;;;;;13.80;2.03;;;19.90;86.70;;;;;;5061275;28;20685;-70
2020/12/25 08:42:00;;;;;;;12.60;2.33;;;19.90;86.60;;;;;;5063749;28;20179;-70
2020/12/25 08:44:28;;;;;;;14.77;2.47;;;19.90;86.80;;;;;;5068796;28;22106;-69
2020/12/25 08:47:11;;;;;;;9.10;2.00;;;19.90;86.40;;;;;;5061994;28;20684;-69
2020/12/25 08:49:39;;;;;;;11.50;2.17;;;19.90;86.10;;;;;;5065653;28;20164;-69
2020/12/25 08:52:21;;;;;;;12.87;2.33;;;19.90;86.10;;;;;;5066514;28;20175;-70
2020/12/25 08:54:59;;;;;;;10.00;2.27;;;19.90;86.10;;;;;;5059499;28;20175;-70
2020/12/25 08:57:29;;;;;;;13.23;2.23;;;19.90;85.30;;;;;;5061763;28;20175;-69
2020/12/25 09:00:05;;;;;;;10.37;2.53;;;19.80;84.70;;;;;;5066117;28;20207;-69
2020/12/25 09:02:32;;;;;;;9.27;1.60;;;19.90;84.60;;;;;;5059311;28;20215;-69
2020/12/25 09:04:59;;;;;;;9.30;1.80;;;19.90;84.50;;;;;;5065247;28;20179;-70
2020/12/25 09:07:27;;;;;;;11.80;2.27;;;19.90;84.40;;;;;;5054344;28;20176;-70
2020/12/25 09:09:54;;;;;;;13.90;2.27;;;19.90;84.80;;;;;;5062067;28;20210;-70
2020/12/25 09:12:22;;;;;;;10.03;1.83;;;19.90;85.10;;;;;;5062622;28;20183;-70
2020/12/25 09:14:49;;;;;;;13.47;2.27;;;19.80;85.10;;;;;;5067489;28;20186;-70
2020/12/25 09:17:16;;;;;;;16.80;2.80;;;19.90;85.00;;;;;;5065596;28;20179;-70
2020/12/25 09:19:44;;;;;;;11.80;3.10;;;19.90;85.10;;;;;;5065450;28;20634;-71
2020/12/25 09:22:11;;;;;;;24.43;10.50;;;19.80;85.10;;;;;;5064199;28;20184;-70
2020/12/25 09:24:38;;;;;;;10.13;2.63;;;19.80;85.30;;;;;;5063730;28;20226;-71
2020/12/25 09:27:06;;;;;;;11.07;2.07;;;19.80;85.70;;;;;;5066990;28;20218;-70
2020/12/25 09:29:33;;;;;;;12.20;2.20;;;19.80;85.80;;;;;;5066172;28;20191;-70
2020/12/25 09:32:01;;;;;;;11.77;2.03;;;19.80;85.60;;;;;;5055444;28;20180;-70
2020/12/25 09:34:28;;;;;;;8.93;2.23;;;19.80;85.80;;;;;;5064266;28;20186;-70
2020/12/25 09:36:55;;;;;;;15.07;2.70;;;19.80;86.10;;;;;;5063193;28;20192;-71
2020/12/25 09:39:23;;;;;;;20.03;2.40;;;19.80;86.00;;;;;;5059933;28;20609;-69
2020/12/25 09:41:50;;;;;;;13.43;2.70;;;19.80;86.30;;;;;;5066953;28;20186;-69
2020/12/25 09:44:17;;;;;;;10.30;2.53;;;19.80;86.40;;;;;;5065477;28;20206;-68
2020/12/25 09:46:45;;;;;;;16.63;4.50;;;19.80;86.90;;;;;;5069170;28;20621;-68
2020/12/25 09:49:12;;;;;;;15.67;4.03;;;19.80;87.10;;;;;;5062748;28;20182;-70
2020/12/25 09:51:39;;;;;;;13.73;2.10;;;19.80;87.30;;;;;;5064603;28;20179;-69
2020/12/25 09:54:07;;;;;;;21.40;3.10;;;19.70;87.30;;;;;;5064876;28;20304;-68
2020/12/25 09:56:34;;;;;;;13.77;3.10;;;19.70;87.40;;;;;;5062387;28;20236;-69
2020/12/25 09:59:01;;;;;;;7.63;1.70;;;19.70;87.40;;;;;;5063784;28;20220;-69
2020/12/25 10:01:28;;;;;;;12.60;2.43;;;19.80;87.30;;;;;;5064657;28;20333;-69
2020/12/25 10:03:56;;;;;;;16.17;2.93;;;19.80;87.20;;;;;;5060358;28;20184;-69
2020/12/25 10:06:25;;;;;;;10.20;2.37;;;19.80;87.10;;;;;;5089396;28;20653;-69
2020/12/25 10:08:53;;;;;;;10.07;2.10;;;19.80;87.00;;;;;;5055860;28;20176;-69
2020/12/25 10:11:21;;;;;;;20.00;3.27;;;19.80;87.00;;;;;;5065767;28;20188;-69
2020/12/25 10:13:48;;;;;;;14.70;2.97;;;19.80;86.70;;;;;;5071562;28;20183;-69
2020/12/25 10:16:18;;;;;;;12.07;2.13;;;19.90;86.50;;;;;;5066174;28;20187;-69
2020/12/25 10:18:45;;;;;;;10.77;2.23;;;19.90;86.00;;;;;;5069388;28;20280;-70
2020/12/25 10:21:18;;;;;;;9.23;1.60;;;19.90;85.70;;;;;;5067397;28;20198;-71
2020/12/25 10:23:45;;;;;;;12.93;2.03;;;19.90;85.80;;;;;;5063923;28;20184;-70
2020/12/25 10:26:12;;;;;;;8.80;1.97;;;19.90;85.70;;;;;;5060014;28;20549;-69
2020/12/25 10:28:40;;;;;;;11.20;2.27;;;19.90;85.70;;;;;;5062363;28;20554;-70
2020/12/25 10:31:09;;;;;;;13.20;2.40;;;19.90;85.70;;;;;;5067737;28;20649;-70
2020/12/25 10:33:39;;;;;;;10.17;2.60;;;19.90;85.80;;;;;;5062849;28;20537;-71
2020/12/25 10:36:06;;;;;;;8.00;1.87;;;19.90;85.80;;;;;;5063417;28;20230;-69
2020/12/25 10:38:35;;;;;;;14.83;2.40;;;19.90;86.10;;;;;;5061638;28;20207;-70
2020/12/25 10:41:04;;;;;;;11.37;2.40;;;19.80;86.00;;;;;;5068898;28;20229;-71
2020/12/25 10:43:32;;;;;;;9.70;2.00;;;19.90;86.40;;;;;;5063830;28;20176;-70
2020/12/25 10:45:59;;;;;;;12.67;2.27;;;19.90;86.40;;;;;;5064572;28;20180;-70
2020/12/25 10:48:27;;;;;;;8.87;2.20;;;19.80;86.50;;;;;;5069283;28;20263;-69
2020/12/25 10:50:54;;;;;;;14.10;2.07;;;19.80;87.00;;;;;;5060978;28;20187;-69
2020/12/25 10:53:21;;;;;;;15.03;2.90;;;19.80;86.80;;;;;;5088293;28;20183;-70
2020/12/25 10:55:49;;;;;;;12.53;2.30;;;19.80;86.80;;;;;;5063654;28;20586;-70
2020/12/25 10:58:19;;;;;;;10.57;1.87;;;19.70;86.40;;;;;;5062604;28;20179;-70
2020/12/25 11:00:48;;;;;;;8.90;2.03;;;19.70;86.80;;;;;;5062982;28;20634;-70
2020/12/25 11:03:15;;;;;;;10.37;2.43;;;19.80;86.70;;;;;;5065125;28;20240;-70
2020/12/25 11:05:42;;;;;;;11.77;3.03;;;19.70;86.70;;;;;;5087613;28;20184;-69
2020/12/25 11:08:10;;;;;;;17.53;2.83;;;19.70;86.80;;;;;;5067094;28;20630;-69
2020/12/25 11:10:37;;;;;;;12.00;2.23;;;19.70;87.10;;;;;;5069373;28;20202;-69
2020/12/25 11:13:05;;;;;;;17.07;2.50;;;19.70;87.60;;;;;;5056637;28;20213;-69
2020/12/25 11:15:32;;;;;;;9.37;2.17;;;19.70;88.00;;;;;;5059464;28;20184;-71
2020/12/25 11:18:01;;;;;;;10.30;2.57;;;19.70;88.20;;;;;;5065412;28;20296;-69
2020/12/25 11:20:28;;;;;;;10.70;2.57;;;19.70;88.10;;;;;;5059644;28;20237;-70
2020/12/25 11:22:56;;;;;;;11.53;2.53;;;19.60;88.30;;;;;;5066415;28;20210;-70
2020/12/25 11:25:23;;;;;;;11.80;2.03;;;19.60;88.60;;;;;;5068261;28;20230;-70
2020/12/25 11:27:50;;;;;;;9.93;1.50;;;19.60;89.40;;;;;;5067788;28;20189;-71
2020/12/25 11:30:18;;;;;;;9.70;2.23;;;19.60;88.80;;;;;;5059500;28;20192;-69
2020/12/25 11:32:45;;;;;;;14.63;2.40;;;19.60;88.80;;;;;;5067449;28;20233;-70
2020/12/25 11:35:12;;;;;;;9.60;1.87;;;19.60;88.80;;;;;;5068452;28;20599;-70
2020/12/25 11:37:41;;;;;;;11.27;2.47;;;19.60;88.90;;;;;;5070975;28;20187;-70
2020/12/25 11:40:08;;;;;;;14.67;2.50;;;19.60;88.80;;;;;;5061568;28;20227;-69
2020/12/25 11:42:36;;;;;;;11.33;2.30;;;19.60;89.10;;;;;;5065434;28;20179;-70
2020/12/25 11:45:03;;;;;;;17.30;2.57;;;19.60;89.20;;;;;;5068924;28;20202;-69
2020/12/25 11:47:34;;;;;;;7.27;2.20;;;19.60;89.10;;;;;;5063464;28;20188;-69
2020/12/25 11:50:01;;;;;;;13.33;2.43;;;19.60;89.30;;;;;;5061071;28;20187;-70
2020/12/25 11:52:32;;;;;;;12.20;1.93;;;19.60;89.20;;;;;;5060058;28;20180;-69
2020/12/25 11:55:00;;;;;;;13.50;2.77;;;19.60;89.40;;;;;;5063759;28;20655;-69
2020/12/25 11:57:30;;;;;;;9.43;2.30;;;19.60;88.90;;;;;;5066529;28;20187;-69
2020/12/25 11:59:57;;;;;;;11.13;2.00;;;19.60;88.60;;;;;;5067871;28;20207;-70
2020/12/25 12:02:25;;;;;;;11.60;2.03;;;19.70;88.80;;;;;;5057498;28;20230;-70
2020/12/25 12:04:52;;;;;;;13.03;1.97;;;19.70;88.90;;;;;;5064063;28;20274;-69
2020/12/25 12:07:19;;;;;;;12.80;2.47;;;19.70;87.90;;;;;;5064440;28;20524;-69
2020/12/25 12:09:47;;;;;;;11.40;2.20;;;19.70;87.80;;;;;;5057630;28;20317;-70
2020/12/25 12:12:14;;;;;;;11.27;2.03;;;19.70;87.60;;;;;;5065675;28;20187;-70
2020/12/25 12:14:41;;;;;;;8.77;2.10;;;19.70;87.70;;;;;;5064232;28;20171;-70
2020/12/25 12:17:09;;;;;;;11.47;2.07;;;19.70;87.70;;;;;;5064608;28;20184;-69
2020/12/25 12:19:36;;;;;;;13.23;2.33;;;19.70;87.70;;;;;;5061829;28;20214;-69
2020/12/25 12:22:03;;;;;;;9.50;2.27;;;19.70;87.60;;;;;;5062500;28;20191;-69
2020/12/25 12:24:30;;;;;;;13.90;2.47;;;19.80;87.50;;;;;;5061732;28;20866;-69
2020/12/25 12:26:58;;;;;;;10.13;2.13;;;19.80;87.10;;;;;;5062677;28;20230;-70
2020/12/25 12:29:25;;;;;;;7.23;2.43;;;19.80;87.40;;;;;;5065027;28;20262;-70
2020/12/25 12:31:53;;;;;;;11.43;1.97;;;19.60;91.30;;;;;;5065226;28;20178;-70
2020/12/25 12:34:20;;;;;;;8.90;2.13;;;19.40;92.50;;;;;;5065357;28;20532;-69
2020/12/25 12:36:47;;;;;;;6.77;2.10;;;19.20;93.20;;;;;;5064624;28;20262;-69
2020/12/25 12:39:15;;;;;;;8.27;1.80;;;19.10;93.50;;;;;;5067756;28;20242;-70
2020/12/25 12:41:42;;;;;;;9.23;2.13;;;19.00;94.10;;;;;;5066792;28;20562;-70
2020/12/25 12:44:10;;;;;;;11.93;2.33;;;18.90;94.80;;;;;;5065385;28;20233;-70
2020/12/25 12:46:37;;;;;;;15.40;2.50;;;18.80;95.50;;;;;;5069282;28;20191;-71